Time;durP1;ratioP1;P1;durP2;ratioP2;P2;SDS_P1;SDS_P2;PMS_P1;PMS_P2;Temp;Humidity;BMP_temperature;BMP_pressure;BME280_temperature;BME280_humidity;BME280_pressure;Samples;Min_cycle;Max_cycle;Signal;HPM_P1;HPM_P2
2021/05/06 00:02:00;;;;;;;;;;;;;;;4.55;76.49;97992.56;2114513;84;20119;-76
2021/05/06 00:08:59;;;;;;;;;;;;;;;4.57;76.08;98001.10;2112377;84;20138;-76
2021/05/06 00:32:01;;;;;;;;;;;;;;;4.47;76.44;98032.73;2115722;84;20573;-76
2021/05/06 00:35:00;;;;;;;;;;;;;;;4.48;76.66;98030.53;2090967;84;20158;-76
2021/05/06 00:38:07;;;;;;;;;;;;;;;4.44;76.50;98030.30;2115646;84;20135;-77
2021/05/06 00:41:16;;;;;;;;;;;;;;;4.42;76.62;98021.72;2112424;84;20519;-76
2021/05/06 00:44:36;;;;;;;;;;;;;;;4.40;76.69;98038.31;2111279;84;20253;-76
2021/05/06 00:57:32;;;;;;;;;;;;;;;4.28;76.54;98057.45;2115289;84;20170;-76
2021/05/06 01:00:58;;;;;;;;;;;;;;;4.24;76.61;98070.19;2115229;84;20127;-77
2021/05/06 01:04:04;;;;;;;;;;;;;;;4.22;76.79;98069.88;2112028;84;20162;-76
2021/05/06 01:07:13;;;;;;;;;;;;;;;4.19;76.84;98072.16;2114638;84;20159;-76
2021/05/06 01:10:26;;;;;;;;;;;;;;;4.15;76.91;98075.80;2114831;84;20524;-77
2021/05/06 01:13:26;;;;;;;;;;;;;;;4.10;76.81;98078.62;2114845;84;20198;-76
2021/05/06 01:16:28;;;;;;;;;;;;;;;4.09;76.79;98080.82;2115568;84;20417;-77
2021/05/06 01:19:29;;;;;;;;;;;;;;;4.05;76.81;98084.50;2115582;84;20175;-76
2021/05/06 01:22:31;;;;;;;;;;;;;;;3.98;76.94;98086.52;2126385;83;20178;-77
2021/05/06 01:25:33;;;;;;;;;;;;;;;3.96;76.92;98085.73;2126654;84;20150;-76
2021/05/06 01:28:38;;;;;;;;;;;;;;;3.93;76.79;98088.47;2126578;84;20162;-77
2021/05/06 01:31:48;;;;;;;;;;;;;;;3.88;77.12;98096.08;2126514;84;20139;-76
2021/05/06 01:34:46;;;;;;;;;;;;;;;3.90;77.15;98106.78;2125191;83;20146;-76
2021/05/06 01:37:58;;;;;;;;;;;;;;;3.95;77.11;98099.64;2126612;84;20421;-76
2021/05/06 01:41:11;;;;;;;;;;;;;;;3.98;77.42;98099.97;2125488;84;20146;-76
2021/05/06 01:44:10;;;;;;;;;;;;;;;4.03;77.46;98103.17;2125798;83;20147;-76
2021/05/06 01:47:18;;;;;;;;;;;;;;;4.06;77.21;98095.24;2126485;83;20126;-77
2021/05/06 01:50:36;;;;;;;;;;;;;;;4.06;76.93;98095.70;2126352;83;20127;-77
2021/05/06 02:00:17;;;;;;;;;;;;;;;4.01;76.67;98101.12;2127081;84;20270;-77
2021/05/06 02:03:19;;;;;;;;;;;;;;;4.05;76.54;98112.19;2126725;84;20154;-77
2021/05/06 02:06:21;;;;;;;;;;;;;;;4.08;76.45;98117.23;2126996;84;20254;-76
2021/05/06 02:09:23;;;;;;;;;;;;;;;4.07;76.33;98112.50;2127003;84;20139;-77
2021/05/06 02:12:25;;;;;;;;;;;;;;;4.06;76.31;98117.30;2126849;84;20520;-76
2021/05/06 02:15:29;;;;;;;;;;;;;;;4.05;76.41;98115.64;2102625;84;20226;-77
2021/05/06 02:18:34;;;;;;;;;;;;;;;4.05;76.28;98114.78;2126771;84;20413;-77
2021/05/06 02:21:35;;;;;;;;;;;;;;;4.03;76.31;98121.34;2119991;84;20195;-77
2021/05/06 02:24:37;;;;;;;;;;;;;;;4.02;76.29;98124.84;2115694;84;20163;-76
2021/05/06 02:27:39;;;;;;;;;;;;;;;3.99;76.27;98127.14;2115744;84;20418;-77
2021/05/06 02:30:41;;;;;;;;;;;;;;;3.97;76.29;98124.22;2115721;84;20185;-77
2021/05/06 02:33:43;;;;;;;;;;;;;;;3.92;76.30;98120.98;2115755;84;20143;-77
2021/05/06 02:36:45;;;;;;;;;;;;;;;3.89;76.36;98127.14;2115842;84;20178;-77
2021/05/06 02:39:47;;;;;;;;;;;;;;;3.85;76.39;98129.52;2115726;84;20143;-77
2021/05/06 02:42:49;;;;;;;;;;;;;;;3.82;76.41;98141.30;2115825;84;20430;-77
2021/05/06 02:45:51;;;;;;;;;;;;;;;3.79;76.33;98131.92;2115819;84;20155;-77
2021/05/06 02:48:53;;;;;;;;;;;;;;;3.78;76.32;98138.48;2115734;84;20166;-77
2021/05/06 02:52:01;;;;;;;;;;;;;;;3.76;76.26;98134.63;2115858;84;20484;-77
2021/05/06 02:55:06;;;;;;;;;;;;;;;3.69;76.23;98136.27;2115228;84;20182;-77
2021/05/06 02:58:08;;;;;;;;;;;;;;;3.67;76.43;98146.72;2115237;84;20174;-77
2021/05/06 03:04:30;;;;;;;;;;;;;;;3.64;76.56;98155.47;2115967;84;20279;-77
2021/05/06 03:07:33;;;;;;;;;;;;;;;3.69;76.39;98164.34;2115841;84;20422;-77
2021/05/06 03:24:21;;;;;;;;;;;;;;;3.60;76.09;98200.59;2115721;84;20150;-76
2021/05/06 03:27:27;;;;;;;;;;;;;;;3.59;76.05;98204.13;2115664;84;20127;-77
2021/05/06 03:30:38;;;;;;;;;;;;;;;3.58;76.04;98204.19;2115381;84;20140;-77
2021/05/06 03:44:00;;;;;;;;;;;;;;;3.74;75.56;98216.05;2115703;84;20183;-77
2021/05/06 03:47:26;;;;;;;;;;;;;;;3.87;75.35;98217.19;2114435;84;20480;-77
2021/05/06 04:17:34;;;;;;;;;;;;;;;4.88;72.33;98255.08;2100653;84;20233;-77
2021/05/06 04:27:17;;;;;;;;;;;;;;;5.23;71.04;98264.72;2115669;84;20144;-76
2021/05/06 04:30:44;;;;;;;;;;;;;;;5.29;70.21;98263.14;2115891;84;20147;-76
2021/05/06 04:37:04;;;;;;;;;;;;;;;5.51;70.03;98274.16;2112831;84;20213;-76
2021/05/06 04:40:10;;;;;;;;;;;;;;;5.58;69.72;98278.61;2112825;84;20142;-76
2021/05/06 04:43:53;;;;;;;;;;;;;;;5.69;69.83;98270.29;2115358;84;20452;-76
2021/05/06 05:03:53;;;;;;;;;;;;;;;6.36;66.75;98288.13;2115702;84;20151;-75
2021/05/06 05:06:55;;;;;;;;;;;;;;;6.57;68.29;98287.94;2115138;84;20242;-76
2021/05/06 05:10:07;;;;;;;;;;;;;;;6.75;67.23;98295.22;2115337;84;20179;-76
2021/05/06 05:20:07;;;;;;;;;;;;;;;6.86;66.23;98299.40;2115679;84;20414;-76
2021/05/06 05:23:33;;;;;;;;;;;;;;;7.04;66.12;98302.78;2115573;83;20230;-76
2021/05/06 05:26:33;;;;;;;;;;;;;;;7.04;65.41;98302.78;2115315;84;20222;-76
2021/05/06 05:29:35;;;;;;;;;;;;;;;7.19;63.41;98311.98;2115665;84;20180;-75
2021/05/06 05:32:37;;;;;;;;;;;;;;;7.24;64.26;98299.07;2115672;84;20454;-76
2021/05/06 05:35:41;;;;;;;;;;;;;;;7.34;61.76;98316.36;2115626;84;20230;-76
2021/05/06 05:38:53;;;;;;;;;;;;;;;7.43;62.86;98315.00;2115697;84;20447;-76
2021/05/06 05:42:16;;;;;;;;;;;;;;;7.64;62.58;98312.92;2115527;84;20127;-75
2021/05/06 05:55:21;;;;;;;;;;;;;;;7.82;61.29;98339.77;2115629;84;20182;-75
2021/05/06 05:58:23;;;;;;;;;;;;;;;7.76;59.88;98337.52;2115551;84;20143;-76
2021/05/06 06:01:27;;;;;;;;;;;;;;;7.81;58.94;98343.29;2115544;84;20166;-75
2021/05/06 06:04:29;;;;;;;;;;;;;;;7.94;60.87;98321.23;2115811;84;20150;-76
2021/05/06 06:07:31;;;;;;;;;;;;;;;8.12;61.95;98321.46;2091620;84;20453;-76
2021/05/06 06:10:33;;;;;;;;;;;;;;;8.18;60.80;98307.67;2115591;84;20174;-76
2021/05/06 06:13:35;;;;;;;;;;;;;;;8.31;57.31;98325.59;2116102;84;20262;-75
2021/05/06 06:16:40;;;;;;;;;;;;;;;8.39;59.06;98312.06;2115630;84;20222;-77
2021/05/06 06:19:48;;;;;;;;;;;;;;;8.56;59.65;98317.61;2115705;84;20226;-76
2021/05/06 06:22:47;;;;;;;;;;;;;;;8.66;57.86;98305.20;2122147;83;20147;-75
2021/05/06 06:25:49;;;;;;;;;;;;;;;8.70;58.66;98306.32;2126564;84;20158;-77
2021/05/06 06:28:53;;;;;;;;;;;;;;;8.75;56.44;98325.16;2126596;84;20413;-75
2021/05/06 06:31:54;;;;;;;;;;;;;;;8.63;57.36;98317.61;2126589;84;20167;-75
2021/05/06 06:34:57;;;;;;;;;;;;;;;8.79;57.45;98297.45;2101450;84;20134;-75
2021/05/06 06:37:59;;;;;;;;;;;;;;;8.95;57.24;98293.41;2126691;84;20143;-75
2021/05/06 06:41:01;;;;;;;;;;;;;;;9.16;57.04;98312.59;2126726;84;20135;-75
2021/05/06 06:44:03;;;;;;;;;;;;;;;9.16;55.29;98317.83;2126716;84;20146;-75
2021/05/06 06:47:06;;;;;;;;;;;;;;;9.31;55.75;98319.92;2126742;84;20186;-75
2021/05/06 06:50:08;;;;;;;;;;;;;;;9.00;55.77;98325.33;2126734;84;20189;-75
2021/05/06 06:53:12;;;;;;;;;;;;;;;8.75;54.39;98315.56;2126805;84;20560;-75
2021/05/06 06:56:14;;;;;;;;;;;;;;;8.68;57.49;98322.11;2126632;84;20127;-75
2021/05/06 06:59:16;;;;;;;;;;;;;;;8.82;56.17;98297.70;2126800;84;20537;-75
2021/05/06 07:02:18;;;;;;;;;;;;;;;9.13;56.03;98304.47;2126789;84;20516;-76
2021/05/06 07:05:20;;;;;;;;;;;;;;;8.60;53.87;98332.19;2126681;84;20146;-76
2021/05/06 07:08:23;;;;;;;;;;;;;;;9.11;55.42;98323.84;2126693;84;20122;-76
2021/05/06 07:11:25;;;;;;;;;;;;;;;9.08;53.87;98315.70;2126705;84;20454;-76
2021/05/06 07:14:30;;;;;;;;;;;;;;;9.29;53.03;98308.73;2126681;84;20142;-76
2021/05/06 07:17:32;;;;;;;;;;;;;;;9.40;51.48;98327.69;2126890;84;20493;-75
2021/05/06 07:20:34;;;;;;;;;;;;;;;9.43;52.83;98320.47;2126626;84;20166;-75
2021/05/06 07:23:36;;;;;;;;;;;;;;;9.85;52.54;98323.00;2117336;84;20406;-76
2021/05/06 07:26:38;;;;;;;;;;;;;;;9.77;50.10;98306.95;2115731;84;20135;-77
2021/05/06 07:29:40;;;;;;;;;;;;;;;9.26;51.94;98320.71;2115679;84;20136;-75
2021/05/06 07:32:44;;;;;;;;;;;;;;;9.08;52.19;98301.31;2115693;84;20155;-76
2021/05/06 07:35:46;;;;;;;;;;;;;;;9.39;52.49;98330.75;2115809;84;20163;-75
2021/05/06 07:38:47;;;;;;;;;;;;;;;9.46;50.28;98316.34;2115730;84;20445;-76
2021/05/06 07:41:49;;;;;;;;;;;;;;;9.83;52.06;98307.88;2115660;84;20434;-75
2021/05/06 07:44:52;;;;;;;;;;;;;;;10.34;52.14;98311.04;2115763;84;20431;-78
2021/05/06 07:47:54;;;;;;;;;;;;;;;10.32;49.24;98314.22;2115671;84;20143;-77
2021/05/06 07:50:56;;;;;;;;;;;;;;;10.03;49.28;98323.09;2115639;84;20163;-76
2021/05/06 07:54:04;;;;;;;;;;;;;;;10.04;50.44;98310.82;2115672;84;20464;-76
2021/05/06 07:57:02;;;;;;;;;;;;;;;10.17;51.58;98314.77;2115061;84;20403;-77
2021/05/06 08:00:04;;;;;;;;;;;;;;;10.37;50.65;98311.69;2115974;84;20159;-76
2021/05/06 08:03:07;;;;;;;;;;;;;;;10.54;47.46;98317.09;2115660;84;20151;-77
2021/05/06 08:06:09;;;;;;;;;;;;;;;10.36;49.89;98313.10;2116184;84;20179;-76
2021/05/06 08:09:12;;;;;;;;;;;;;;;10.42;51.56;98315.78;2115666;84;20124;-76
2021/05/06 08:12:14;;;;;;;;;;;;;;;10.86;48.58;98313.14;2116043;84;20401;-76
2021/05/06 08:15:16;;;;;;;;;;;;;;;11.47;47.39;98319.73;2115672;84;20147;-76
2021/05/06 08:18:18;;;;;;;;;;;;;;;11.58;47.21;98305.35;2116302;84;20234;-76
2021/05/06 08:21:21;;;;;;;;;;;;;;;11.85;44.69;98295.08;2091987;83;20441;-76
2021/05/06 08:24:23;;;;;;;;;;;;;;;11.68;44.59;98321.28;2127113;84;20246;-76
2021/05/06 08:27:25;;;;;;;;;;;;;;;11.17;44.83;98301.31;2126650;84;20179;-77
2021/05/06 08:30:27;;;;;;;;;;;;;;;10.67;45.19;98309.18;2126610;84;20142;-76
2021/05/06 08:33:29;;;;;;;;;;;;;;;10.81;48.47;98310.02;2127083;84;20234;-75
2021/05/06 08:36:31;;;;;;;;;;;;;;;11.05;47.19;98306.97;2126631;84;20163;-75
2021/05/06 08:39:33;;;;;;;;;;;;;;;11.18;44.49;98310.05;2126604;84;20135;-75
2021/05/06 08:42:35;;;;;;;;;;;;;;;11.37;47.21;98300.36;2126697;84;20189;-75
2021/05/06 08:45:45;;;;;;;;;;;;;;;11.66;47.25;98304.78;2126615;84;20142;-75
2021/05/06 08:48:41;;;;;;;;;;;;;;;11.97;46.39;98305.17;2125312;83;20142;-75
2021/05/06 08:51:43;;;;;;;;;;;;;;;12.11;41.84;98308.91;2126624;84;20134;-75
2021/05/06 08:54:45;;;;;;;;;;;;;;;11.99;42.75;98305.88;2126609;84;20480;-76
2021/05/06 08:57:47;;;;;;;;;;;;;;;12.47;43.88;98289.13;2126894;84;20229;-76
2021/05/06 09:00:49;;;;;;;;;;;;;;;12.99;46.33;98287.66;2127080;84;20233;-76
2021/05/06 09:03:52;;;;;;;;;;;;;;;13.73;42.09;98290.59;2126585;84;20154;-75
2021/05/06 09:06:54;;;;;;;;;;;;;;;13.77;44.41;98288.89;2126940;84;20276;-76
2021/05/06 09:09:56;;;;;;;;;;;;;;;14.31;40.38;98295.41;2126556;84;20138;-75
2021/05/06 09:12:58;;;;;;;;;;;;;;;14.65;40.93;98290.78;2126682;84;20123;-76
2021/05/06 09:16:00;;;;;;;;;;;;;;;13.98;36.28;98288.91;2126708;84;20430;-75
2021/05/06 09:19:02;;;;;;;;;;;;;;;12.98;37.80;98316.25;2126564;84;20166;-78
2021/05/06 09:22:04;;;;;;;;;;;;;;;13.20;38.32;98303.18;2126565;84;20139;-77
2021/05/06 09:25:06;;;;;;;;;;;;;;;12.77;39.23;98305.64;2126879;84;20245;-79
2021/05/06 09:28:08;;;;;;;;;;;;;;;12.40;42.24;98310.28;2126717;84;20123;-76
2021/05/06 09:31:12;;;;;;;;;;;;;;;12.06;42.24;98291.81;2126622;84;20138;-75
2021/05/06 09:34:14;;;;;;;;;;;;;;;11.89;43.51;98292.55;2126620;84;20135;-75
2021/05/06 09:37:16;;;;;;;;;;;;;;;11.89;42.26;98291.23;2126598;84;20163;-74
2021/05/06 09:40:18;;;;;;;;;;;;;;;12.03;41.84;98295.98;2126598;84;20134;-75
2021/05/06 09:43:20;;;;;;;;;;;;;;;12.22;42.04;98289.67;2126562;84;20154;-76
2021/05/06 09:46:23;;;;;;;;;;;;;;;12.10;40.80;98278.31;2126708;84;20230;-75
2021/05/06 09:49:25;;;;;;;;;;;;;;;12.10;43.00;98290.14;2126671;84;20516;-75
2021/05/06 09:52:27;;;;;;;;;;;;;;;12.67;39.52;98294.62;2100945;84;20159;-75
2021/05/06 09:55:29;;;;;;;;;;;;;;;13.03;41.35;98299.25;2101111;84;20222;-76
2021/05/06 09:58:31;;;;;;;;;;;;;;;13.82;41.80;98276.17;2126545;84;20135;-75
2021/05/06 10:01:34;;;;;;;;;;;;;;;14.10;37.40;98298.91;2126592;84;20143;-75
2021/05/06 10:04:37;;;;;;;;;;;;;;;13.71;34.91;98287.26;2126740;84;20134;-81
2021/05/06 10:07:39;;;;;;;;;;;;;;;13.48;36.80;98293.44;2126601;84;20143;-76
2021/05/06 10:10:41;;;;;;;;;;;;;;;13.18;35.42;98290.97;2101107;84;20257;-75
2021/05/06 10:13:43;;;;;;;;;;;;;;;13.50;36.85;98291.98;2126882;84;20199;-75
2021/05/06 10:16:45;;;;;;;;;;;;;;;13.32;36.86;98289.03;2126774;84;20189;-75
2021/05/06 10:19:47;;;;;;;;;;;;;;;12.85;37.44;98288.41;2127258;84;20138;-75
2021/05/06 10:22:50;;;;;;;;;;;;;;;12.48;37.55;98288.16;2122939;84;20222;-76
2021/05/06 10:25:52;;;;;;;;;;;;;;;12.26;39.52;98284.55;2115772;84;20146;-75
2021/05/06 10:28:54;;;;;;;;;;;;;;;12.39;39.43;98271.30;2115737;84;20434;-75
2021/05/06 10:31:56;;;;;;;;;;;;;;;12.36;38.29;98287.31;2116003;84;20230;-76
2021/05/06 10:34:58;;;;;;;;;;;;;;;12.50;39.72;98277.52;2091805;84;20434;-75
2021/05/06 10:38:01;;;;;;;;;;;;;;;13.19;39.39;98264.17;2115973;84;20175;-75
2021/05/06 10:41:02;;;;;;;;;;;;;;;12.86;37.23;98273.80;2115731;84;20136;-75
2021/05/06 10:44:04;;;;;;;;;;;;;;;12.97;39.87;98263.27;2115729;84;20171;-75
2021/05/06 10:47:06;;;;;;;;;;;;;;;12.81;35.60;98274.17;2091587;84;20222;-75
2021/05/06 10:50:08;;;;;;;;;;;;;;;12.92;40.74;98264.09;2115827;84;20414;-75
2021/05/06 10:53:10;;;;;;;;;;;;;;;12.90;36.29;98259.45;2115733;84;20170;-75
2021/05/06 10:56:12;;;;;;;;;;;;;;;12.52;37.63;98272.98;2115731;84;20156;-76
2021/05/06 10:59:14;;;;;;;;;;;;;;;12.28;36.85;98273.45;2115796;84;20162;-75
2021/05/06 11:02:16;;;;;;;;;;;;;;;12.30;40.63;98264.13;2115949;84;20143;-75
2021/05/06 11:05:18;;;;;;;;;;;;;;;12.39;39.25;98267.84;2115697;84;20151;-76
2021/05/06 11:08:20;;;;;;;;;;;;;;;12.45;39.72;98262.09;2115817;84;20135;-76
2021/05/06 11:11:22;;;;;;;;;;;;;;;12.69;40.24;98253.25;2115711;84;20123;-76
2021/05/06 11:14:24;;;;;;;;;;;;;;;13.50;40.24;98257.73;2122328;81;20121;-73
2021/05/06 11:17:26;;;;;;;;;;;;;;;13.59;40.00;98260.09;2168227;81;20231;-75
2021/05/06 11:20:29;;;;;;;;;;;;;;;13.33;38.67;98265.66;2140597;81;20251;-74
2021/05/06 11:23:31;;;;;;;;;;;;;;;13.02;38.62;98257.63;2142631;81;20151;-74
2021/05/06 11:26:33;;;;;;;;;;;;;;;12.94;39.12;98269.23;2135410;83;20151;-76
2021/05/06 11:29:37;;;;;;;;;;;;;;;12.86;41.20;98267.23;2130892;83;20446;-78
2021/05/06 11:32:39;;;;;;;;;;;;;;;12.74;41.31;98255.03;2127049;83;20134;-76
2021/05/06 11:35:41;;;;;;;;;;;;;;;12.32;40.37;98260.06;2149574;83;20146;-75
2021/05/06 11:38:44;;;;;;;;;;;;;;;12.05;40.30;98278.30;2145431;83;20227;-75
2021/05/06 11:41:48;;;;;;;;;;;;;;;11.85;42.50;98244.30;2133935;83;20442;-74
2021/05/06 11:44:51;;;;;;;;;;;;;;;11.61;43.19;98268.34;2127299;83;20288;-74
2021/05/06 11:47:53;;;;;;;;;;;;;;;11.73;43.49;98285.47;2130953;83;20159;-73
2021/05/06 11:50:56;;;;;;;;;;;;;;;12.17;43.61;98282.63;2115290;83;20203;-74
2021/05/06 11:53:58;;;;;;;;;;;;;;;12.94;43.58;98280.63;2135357;83;20155;-74
2021/05/06 11:57:03;;;;;;;;;;;;;;;13.84;42.52;98271.59;2141597;83;20440;-76
2021/05/06 12:00:06;;;;;;;;;;;;;;;14.80;37.42;98271.44;2136725;83;20178;-75
2021/05/06 12:03:08;;;;;;;;;;;;;;;15.35;39.79;98262.25;2126979;83;20142;-75
2021/05/06 12:06:10;;;;;;;;;;;;;;;15.34;36.25;98268.50;2127612;83;20182;-76
2021/05/06 12:09:12;;;;;;;;;;;;;;;15.65;39.47;98259.13;2162530;81;20317;-76
2021/05/06 12:12:16;;;;;;;;;;;;;;;15.24;37.25;98255.27;2125186;83;20503;-75
2021/05/06 12:15:18;;;;;;;;;;;;;;;14.87;38.43;98290.23;2148145;83;20170;-75
2021/05/06 12:18:21;;;;;;;;;;;;;;;13.34;39.62;98284.01;2126385;82;20519;-75
2021/05/06 12:21:24;;;;;;;;;;;;;;;12.06;43.83;98314.15;2105421;83;20160;-76
2021/05/06 12:24:27;;;;;;;;;;;;;;;11.37;46.52;98289.85;2130668;82;20173;-75
2021/05/06 12:27:31;;;;;;;;;;;;;;;10.99;48.19;98307.41;2127132;83;20153;-74
2021/05/06 12:30:34;;;;;;;;;;;;;;;11.00;48.01;98289.88;2139591;83;20135;-76
2021/05/06 12:33:37;;;;;;;;;;;;;;;11.49;47.77;98290.73;2132007;83;20135;-76
2021/05/06 12:36:39;;;;;;;;;;;;;;;11.03;49.60;98278.70;2127063;83;20146;-76
2021/05/06 12:39:43;;;;;;;;;;;;;;;10.94;49.14;98278.02;2136092;83;20232;-75
2021/05/06 12:42:45;;;;;;;;;;;;;;;10.95;48.00;98281.02;2123328;83;20236;-76
2021/05/06 12:45:47;;;;;;;;;;;;;;;10.71;48.04;98273.92;2134163;83;20159;-77
2021/05/06 12:48:49;;;;;;;;;;;;;;;10.38;49.92;98274.02;2127563;83;20151;-77
2021/05/06 12:51:52;;;;;;;;;;;;;;;10.09;53.13;98305.30;2139151;83;20623;-77
2021/05/06 12:54:55;;;;;;;;;;;;;;;9.38;55.56;98336.09;2138178;83;20537;-78
2021/05/06 12:57:58;;;;;;;;;;;;;;;8.58;61.14;98353.19;2131904;83;20121;-76
2021/05/06 13:01:00;;;;;;;;;;;;;;;7.83;64.56;98323.63;2138471;83;20154;-73
2021/05/06 13:04:02;;;;;;;;;;;;;;;8.33;65.95;98304.98;2129735;83;20164;-75
2021/05/06 13:07:04;;;;;;;;;;;;;;;9.23;64.29;98286.41;2139539;83;20165;-75
2021/05/06 13:10:07;;;;;;;;;;;;;;;10.04;62.90;98279.37;2127382;83;20136;-74
2021/05/06 13:13:09;;;;;;;;;;;;;;;10.74;61.36;98274.19;2149979;83;20151;-74
2021/05/06 13:16:11;;;;;;;;;;;;;;;11.56;59.07;98263.07;2137367;83;20408;-75
2021/05/06 13:19:13;;;;;;;;;;;;;;;12.12;54.45;98255.39;2135367;83;20197;-76
2021/05/06 13:22:16;;;;;;;;;;;;;;;12.36;51.93;98245.73;2150003;83;20167;-76
2021/05/06 13:25:19;;;;;;;;;;;;;;;12.26;55.02;98247.73;2133605;83;20291;-75
2021/05/06 13:28:22;;;;;;;;;;;;;;;12.36;53.04;98249.67;2152440;83;20262;-77
2021/05/06 13:31:26;;;;;;;;;;;;;;;11.87;53.24;98255.55;2144946;83;20250;-75
2021/05/06 13:34:29;;;;;;;;;;;;;;;11.63;54.17;98250.33;2146338;83;20521;-76
2021/05/06 13:37:31;;;;;;;;;;;;;;;11.14;52.52;98254.77;2128281;83;20164;-77
2021/05/06 13:40:34;;;;;;;;;;;;;;;10.70;54.26;98256.53;2132231;83;20757;-76
2021/05/06 13:43:37;;;;;;;;;;;;;;;10.26;54.63;98287.95;2154695;83;20493;-75
2021/05/06 13:46:39;;;;;;;;;;;;;;;9.81;56.42;98320.21;2137814;83;20230;-78
2021/05/06 13:49:41;;;;;;;;;;;;;;;9.04;60.08;98308.13;2155138;83;20246;-75
2021/05/06 13:52:44;;;;;;;;;;;;;;;8.64;62.48;98338.44;2138226;83;20143;-73
2021/05/06 13:55:46;;;;;;;;;;;;;;;8.63;62.38;98301.92;2142004;83;20261;-75
2021/05/06 13:58:48;;;;;;;;;;;;;;;9.14;62.17;98304.02;2151295;83;20131;-75
2021/05/06 14:01:53;;;;;;;;;;;;;;;9.98;61.06;98294.21;2141328;83;20242;-76
2021/05/06 14:04:56;;;;;;;;;;;;;;;10.64;59.73;98282.34;2146288;83;20297;-76
2021/05/06 14:07:58;;;;;;;;;;;;;;;10.88;56.25;98280.61;2144461;83;20417;-76
2021/05/06 14:11:01;;;;;;;;;;;;;;;11.07;55.35;98257.81;2137998;83;20142;-76
2021/05/06 14:14:03;;;;;;;;;;;;;;;11.76;54.23;98253.70;2172271;81;20227;-80
2021/05/06 14:17:05;;;;;;;;;;;;;;;12.15;56.03;98245.58;2156341;81;20257;-76
2021/05/06 14:20:07;;;;;;;;;;;;;;;12.48;54.15;98247.38;2130269;83;20225;-75
2021/05/06 14:23:09;;;;;;;;;;;;;;;12.58;54.35;98238.30;2121755;83;20230;-75
2021/05/06 14:26:11;;;;;;;;;;;;;;;12.47;52.69;98243.10;2151209;83;20231;-75
2021/05/06 14:29:14;;;;;;;;;;;;;;;12.36;52.92;98240.47;2140616;83;20174;-75
2021/05/06 14:32:16;;;;;;;;;;;;;;;12.26;52.65;98238.53;2131186;83;20507;-76
2021/05/06 14:35:18;;;;;;;;;;;;;;;12.49;54.59;98228.02;2134652;83;20285;-78
2021/05/06 14:38:20;;;;;;;;;;;;;;;13.29;53.45;98219.50;2120318;83;20545;-75
2021/05/06 14:41:22;;;;;;;;;;;;;;;14.03;51.63;98209.42;2154943;83;20193;-76
2021/05/06 14:44:25;;;;;;;;;;;;;;;14.70;51.52;98208.55;2136920;83;20159;-75
2021/05/06 14:47:27;;;;;;;;;;;;;;;14.85;49.78;98199.26;2138209;81;20125;-73
2021/05/06 14:50:29;;;;;;;;;;;;;;;15.49;50.89;98193.13;2146060;83;20513;-74
2021/05/06 14:53:31;;;;;;;;;;;;;;;15.73;49.79;98191.83;2144056;83;20127;-73
2021/05/06 14:56:33;;;;;;;;;;;;;;;16.04;47.15;98178.45;2146455;83;20540;-73
2021/05/06 14:59:35;;;;;;;;;;;;;;;16.23;46.68;98176.21;2132705;83;20260;-73
2021/05/06 15:02:37;;;;;;;;;;;;;;;16.36;45.77;98167.44;2130378;83;20218;-72
2021/05/06 15:05:39;;;;;;;;;;;;;;;16.23;48.04;98167.80;2150890;83;20241;-78
2021/05/06 15:08:42;;;;;;;;;;;;;;;15.97;47.66;98164.13;2156529;83;20194;-74
2021/05/06 15:11:44;;;;;;;;;;;;;;;15.85;46.33;98174.88;2133143;83;20294;-75
2021/05/06 15:14:46;;;;;;;;;;;;;;;17.71;43.42;98151.71;2119978;84;20192;-74
2021/05/06 15:17:51;;;;;;;;;;;;;;;16.97;44.52;98146.14;2119977;84;20428;-74
2021/05/06 15:20:53;;;;;;;;;;;;;;;18.69;44.35;98136.28;2120616;84;20129;-72
2021/05/06 15:23:56;;;;;;;;;;;;;;;19.62;43.52;98133.03;2104094;84;20252;-72
2021/05/06 15:26:58;;;;;;;;;;;;;;;19.92;41.92;98124.03;2127024;84;20125;-72
2021/05/06 15:30:00;;;;;;;;;;;;;;;21.11;41.06;98124.80;2127195;84;20495;-71
2021/05/06 15:33:02;;;;;;;;;;;;;;;23.31;39.15;98115.41;2127343;84;20236;-72
2021/05/06 15:36:04;;;;;;;;;;;;;;;23.40;37.54;98113.42;2127312;84;20242;-72
2021/05/06 15:39:06;;;;;;;;;;;;;;;21.87;38.43;98115.98;2127307;84;20129;-72
2021/05/06 15:42:09;;;;;;;;;;;;;;;22.99;37.01;98114.89;2127431;84;20157;-71
2021/05/06 15:45:11;;;;;;;;;;;;;;;25.20;33.79;98108.64;2127314;84;20279;-72
2021/05/06 15:48:13;;;;;;;;;;;;;;;26.35;31.73;98099.41;2100978;84;20224;-79
2021/05/06 15:51:15;;;;;;;;;;;;;;;27.36;31.94;98103.20;2101094;84;20255;-72
2021/05/06 15:54:17;;;;;;;;;;;;;;;28.38;29.60;98095.25;2127394;84;20443;-72
2021/05/06 15:57:19;;;;;;;;;;;;;;;29.00;28.49;98081.55;2127614;84;20280;-72
2021/05/06 16:00:24;;;;;;;;;;;;;;;28.85;24.97;98085.22;2101027;84;20235;-71
2021/05/06 16:03:26;;;;;;;;;;;;;;;28.76;27.71;98084.73;2101088;84;20259;-72
2021/05/06 16:06:28;;;;;;;;;;;;;;;29.78;27.47;98083.41;2127280;84;20176;-72
2021/05/06 16:09:30;;;;;;;;;;;;;;;30.82;26.56;98078.52;2127365;84;20515;-72
2021/05/06 16:12:32;;;;;;;;;;;;;;;31.76;25.41;98077.62;2127300;84;20236;-72
2021/05/06 16:15:34;;;;;;;;;;;;;;;32.39;24.59;98068.68;2127394;84;20420;-72
2021/05/06 16:18:40;;;;;;;;;;;;;;;32.77;24.03;98066.95;2127720;84;20239;-72
2021/05/06 16:21:40;;;;;;;;;;;;;;;33.04;23.31;98065.28;2127083;84;20452;-72
2021/05/06 16:24:42;;;;;;;;;;;;;;;30.41;24.59;98059.63;2124511;83;20169;-72
2021/05/06 16:27:45;;;;;;;;;;;;;;;29.34;25.35;98060.81;2121011;84;20267;-72
2021/05/06 16:30:49;;;;;;;;;;;;;;;30.89;23.90;98057.53;2120635;84;20133;-72
2021/05/06 16:33:55;;;;;;;;;;;;;;;30.96;23.58;98051.97;2120756;84;20570;-72
2021/05/06 16:37:00;;;;;;;;;;;;;;;30.84;23.27;98049.31;2120215;84;20252;-72
2021/05/06 16:40:05;;;;;;;;;;;;;;;28.94;23.85;98062.77;2120490;84;20137;-72
2021/05/06 16:43:13;;;;;;;;;;;;;;;26.22;26.02;98072.06;2120220;84;20165;-73
2021/05/06 16:46:15;;;;;;;;;;;;;;;23.97;27.53;98077.30;2102334;84;20148;-72
2021/05/06 16:49:17;;;;;;;;;;;;;;;22.25;29.26;98074.47;2120630;84;20232;-73
2021/05/06 16:52:20;;;;;;;;;;;;;;;20.84;30.64;98081.36;2120991;84;20228;-73
2021/05/06 16:55:22;;;;;;;;;;;;;;;19.94;32.06;98073.30;2120665;84;20237;-73
2021/05/06 16:58:24;;;;;;;;;;;;;;;19.12;33.16;98082.22;2120813;84;20541;-73
2021/05/06 17:01:26;;;;;;;;;;;;;;;18.31;34.25;98079.25;2120644;84;20149;-73
2021/05/06 17:04:28;;;;;;;;;;;;;;;17.88;35.63;98068.59;2120632;84;20253;-73
2021/05/06 17:07:30;;;;;;;;;;;;;;;17.56;35.47;98064.78;2120659;84;20240;-73
2021/05/06 17:10:35;;;;;;;;;;;;;;;17.05;36.22;98067.26;2102331;84;20420;-73
2021/05/06 17:13:36;;;;;;;;;;;;;;;16.54;37.00;98062.95;2120437;84;20145;-73
2021/05/06 17:16:38;;;;;;;;;;;;;;;16.16;37.97;98064.87;2121083;84;20125;-74
2021/05/06 17:19:40;;;;;;;;;;;;;;;15.78;38.49;98068.48;2121097;84;20232;-74
2021/05/06 17:22:43;;;;;;;;;;;;;;;15.28;39.10;98065.63;2120848;84;20264;-73
2021/05/06 17:25:46;;;;;;;;;;;;;;;15.07;39.97;98082.48;2120782;83;20287;-73
2021/05/06 17:28:49;;;;;;;;;;;;;;;14.81;40.55;98079.55;2120601;84;20271;-74
2021/05/06 17:31:51;;;;;;;;;;;;;;;14.52;41.38;98086.47;2120738;84;20523;-73
2021/05/06 17:34:53;;;;;;;;;;;;;;;14.30;41.67;98102.52;2120636;84;20236;-78
2021/05/06 17:37:55;;;;;;;;;;;;;;;13.98;43.02;98081.95;2120616;84;20563;-75
2021/05/06 17:40:56;;;;;;;;;;;;;;;13.68;44.43;98069.62;2120610;84;20251;-84
2021/05/06 17:43:58;;;;;;;;;;;;;;;13.24;43.26;98064.97;2120933;84;20255;-75
2021/05/06 17:47:03;;;;;;;;;;;;;;;13.01;44.78;98071.67;2120603;84;20136;-75
2021/05/06 17:50:05;;;;;;;;;;;;;;;12.80;45.96;98050.13;2120721;84;20554;-75
2021/05/06 17:53:07;;;;;;;;;;;;;;;12.56;46.34;98058.72;2120571;84;20232;-76
2021/05/06 17:56:09;;;;;;;;;;;;;;;12.33;47.34;98054.02;2120639;84;20264;-74
2021/05/06 17:59:13;;;;;;;;;;;;;;;12.11;48.12;98048.67;2120690;84;20500;-74
2021/05/06 18:02:15;;;;;;;;;;;;;;;11.97;49.22;98052.88;2120619;84;20555;-74
2021/05/06 18:05:17;;;;;;;;;;;;;;;11.83;50.12;98052.60;2120703;84;20237;-74
2021/05/06 18:08:24;;;;;;;;;;;;;;;11.55;50.91;98054.77;2102504;84;20419;-74
2021/05/06 18:11:45;;;;;;;;;;;;;;;11.33;51.78;98063.44;2120090;84;20235;-75
2021/05/06 18:14:37;;;;;;;;;;;;;;;11.35;53.16;98067.25;2119042;84;20276;-74
2021/05/06 18:17:39;;;;;;;;;;;;;;;11.10;53.38;98067.80;2120944;84;20232;-74